Time;durP1;ratioP1;P1;durP2;ratioP2;P2;SDS_P1;SDS_P2;PMS_P1;PMS_P2;Temp;Humidity;BMP_temperature;BMP_pressure;BME280_temperature;BME280_humidity;BME280_pressure;Samples;Min_cycle;Max_cycle;Signal;HPM_P1;HPM_P2
2021/04/16 00:00:30;;;;;;;5.43;4.90;;;4.10;99.90;;;;;;5071878;28;20515;-64
2021/04/16 00:02:56;;;;;;;4.90;4.40;;;4.00;99.90;;;;;;5082698;28;20446;-63
2021/04/16 00:05:22;;;;;;;4.13;3.73;;;3.90;99.90;;;;;;5055555;28;20523;-63
2021/04/16 00:07:48;;;;;;;4.00;3.70;;;;;;;;;;5071133;28;20306;-63
2021/04/16 00:10:30;;;;;;;4.20;3.67;;;3.80;99.90;;;;;;5075460;28;20449;-63
2021/04/16 00:12:55;;;;;;;3.70;3.30;;;3.90;99.90;;;;;;5075239;28;20442;-63
2021/04/16 00:15:24;;;;;;;3.33;2.90;;;3.90;99.90;;;;;;5070322;28;20498;-63
2021/04/16 00:17:50;;;;;;;3.57;3.27;;;3.90;99.90;;;;;;5069507;28;20241;-63
2021/04/16 00:20:18;;;;;;;3.53;3.20;;;3.90;99.90;;;;;;5070597;28;20898;-63
2021/04/16 00:22:44;;;;;;;4.90;3.37;;;3.90;99.90;;;;;;5073700;28;20444;-63
2021/04/16 00:25:16;;;;;;;4.20;3.80;;;3.80;99.90;;;;;;5069377;28;20433;-63
2021/04/16 00:27:42;;;;;;;3.60;3.30;;;3.90;99.90;;;;;;5069394;28;20262;-63
2021/04/16 00:30:09;;;;;;;4.80;3.50;;;3.80;99.90;;;;;;5076905;28;20541;-63
2021/04/16 00:32:36;;;;;;;4.07;3.67;;;3.80;99.90;;;;;;5086644;28;20250;-63
2021/04/16 00:35:03;;;;;;;7.03;5.53;;;3.90;99.90;;;;;;5070277;28;20524;-63
2021/04/16 00:37:28;;;;;;;5.93;5.37;;;3.90;99.90;;;;;;5070007;28;20452;-63
2021/04/16 00:39:54;;;;;;;7.63;5.90;;;3.90;99.90;;;;;;5071637;28;20457;-63
2021/04/16 00:42:20;;;;;;;5.80;5.20;;;3.90;99.90;;;;;;5068853;28;20214;-63
2021/04/16 00:44:45;;;;;;;5.40;4.90;;;3.90;99.90;;;;;;5085175;28;20190;-63
2021/04/16 00:47:15;;;;;;;5.60;5.10;;;3.90;99.90;;;;;;5074295;28;20174;-63
2021/04/16 00:49:48;;;;;;;5.37;4.87;;;3.80;99.90;;;;;;5075307;28;20247;-63
2021/04/16 00:52:20;;;;;;;5.83;5.17;;;3.80;99.90;;;;;;5072458;28;20445;-62
2021/04/16 00:54:46;;;;;;;5.47;4.93;;;3.90;99.90;;;;;;5073001;28;20546;-63
2021/04/16 00:57:13;;;;;;;5.63;5.10;;;3.80;99.90;;;;;;5074048;28;20825;-63
2021/04/16 00:59:48;;;;;;;5.40;4.90;;;3.80;99.90;;;;;;5076727;28;20267;-63
2021/04/16 01:02:14;;;;;;;7.70;5.90;;;3.80;99.90;;;;;;5071808;28;20925;-62
2021/04/16 01:04:40;;;;;;;7.60;5.87;;;3.90;99.90;;;;;;5075916;28;20444;-63
2021/04/16 01:07:09;;;;;;;6.03;5.50;;;3.90;99.90;;;;;;5081863;28;20688;-63
2021/04/16 01:09:35;;;;;;;5.30;4.80;;;3.90;99.90;;;;;;5079423;28;20198;-63
2021/04/16 01:12:05;;;;;;;6.50;4.80;;;3.90;99.90;;;;;;5074184;28;20929;-63
2021/04/16 01:14:32;;;;;;;5.87;5.30;;;3.90;99.90;;;;;;5074333;28;20437;-63
2021/04/16 01:16:58;;;;;;;6.50;5.50;;;4.00;99.90;;;;;;5072741;28;20542;-63
2021/04/16 01:19:36;;;;;;;6.73;4.33;;;3.90;99.90;;;;;;5072082;28;20452;-63
2021/04/16 01:22:11;;;;;;;5.77;5.20;;;3.90;99.90;;;;;;5073537;28;20187;-64
2021/04/16 01:24:37;;;;;;;5.80;5.30;;;3.90;99.90;;;;;;5072543;28;20438;-63
2021/04/16 01:27:11;;;;;;;5.60;5.07;;;3.90;99.90;;;;;;5073420;28;20452;-64
2021/04/16 01:29:44;;;;;;;5.20;4.67;;;3.80;99.90;;;;;;5073141;28;20981;-63
2021/04/16 01:32:20;;;;;;;11.83;6.20;;;3.80;99.90;;;;;;5072470;28;20441;-63
2021/04/16 01:34:45;;;;;;;7.43;6.60;;;3.90;99.90;;;;;;5072866;28;20462;-63
2021/04/16 01:37:11;;;;;;;8.20;6.40;;;3.90;99.90;;;;;;5072823;28;20445;-63
2021/04/16 01:39:36;;;;;;;8.30;7.20;;;3.90;99.90;;;;;;5074036;28;20198;-63
2021/04/16 01:42:03;;;;;;;7.80;6.90;;;3.90;99.90;;;;;;5072743;28;20300;-63
2021/04/16 01:44:30;;;;;;;7.60;6.60;;;3.90;99.90;;;;;;5073250;28;20286;-63
2021/04/16 01:47:05;;;;;;;8.90;7.67;;;3.90;99.90;;;;;;5073149;28;20449;-63
2021/04/16 01:49:34;;;;;;;12.93;7.70;;;3.90;99.90;;;;;;5074010;28;20472;-62
2021/04/16 01:52:01;;;;;;;8.17;7.37;;;4.00;99.90;;;;;;5073395;28;20792;-63
2021/04/16 01:54:33;;;;;;;7.60;6.83;;;3.90;99.90;;;;;;5071635;28;20508;-63
2021/04/16 01:57:05;;;;;;;9.50;7.90;;;4.00;99.90;;;;;;5072499;28;20536;-63
2021/04/16 01:59:35;;;;;;;8.57;7.30;;;3.90;99.90;;;;;;5073167;28;20804;-62
2021/04/16 02:02:02;;;;;;;7.57;6.57;;;4.50;99.90;;;;;;5074571;28;20429;-64
2021/04/16 02:04:28;;;;;;;9.03;7.70;;;3.90;99.90;;;;;;5073089;28;20468;-63
2021/04/16 02:06:54;;;;;;;9.60;8.00;;;3.80;99.90;;;;;;5072657;28;20469;-64
2021/04/16 02:09:24;;;;;;;9.10;8.20;;;3.90;99.90;;;;;;5072241;28;20217;-64
2021/04/16 02:11:51;;;;;;;9.00;7.67;;;5.40;99.90;;;;;;5073052;28;20434;-63
2021/04/16 02:14:20;;;;;;;7.93;6.30;;;3.80;99.90;;;;;;5071390;28;20440;-63
2021/04/16 02:16:49;;;;;;;8.17;7.33;;;3.90;99.90;;;;;;5069525;28;20449;-63
2021/04/16 02:19:17;;;;;;;8.10;7.20;;;4.00;99.90;;;;;;5074627;28;20973;-62
2021/04/16 02:21:43;;;;;;;9.13;8.20;;;4.00;99.90;;;;;;5074828;28;20551;-63
2021/04/16 02:24:10;;;;;;;9.27;8.10;;;4.00;99.90;;;;;;5071145;28;20440;-63
2021/04/16 02:26:37;;;;;;;10.03;8.30;;;4.00;99.90;;;;;;5070326;28;20445;-63
2021/04/16 02:29:05;;;;;;;10.00;8.60;;;4.10;99.90;;;;;;5070228;28;21040;-63
2021/04/16 02:31:30;;;;;;;11.07;7.93;;;4.10;99.90;;;;;;5070108;28;20484;-63
2021/04/16 02:33:56;;;;;;;10.20;7.20;;;4.10;99.90;;;;;;5071036;28;20473;-63
2021/04/16 02:36:24;;;;;;;8.33;7.40;;;4.00;99.90;;;;;;5070088;28;20222;-62
2021/04/16 02:38:53;;;;;;;8.10;6.80;;;3.90;99.90;;;;;;5071357;28;20688;-63
2021/04/16 02:41:19;;;;;;;8.60;7.13;;;3.90;99.90;;;;;;5069115;28;20526;-63
2021/04/16 02:43:45;;;;;;;8.50;7.10;;;3.80;99.90;;;;;;5072026;28;20445;-63
2021/04/16 02:46:11;;;;;;;8.33;7.03;;;4.60;99.90;;;;;;5071374;28;20544;-63
2021/04/16 02:48:36;;;;;;;7.53;6.73;;;4.00;99.90;;;;;;5071614;28;20463;-63
2021/04/16 02:51:02;;;;;;;7.50;6.70;;;4.10;99.90;;;;;;5071465;28;20186;-63
2021/04/16 02:53:28;;;;;;;8.43;7.40;;;4.00;99.90;;;;;;5070819;28;20183;-63
2021/04/16 02:55:53;;;;;;;8.10;7.30;;;4.00;99.90;;;;;;5071234;28;20995;-63
2021/04/16 02:58:19;;;;;;;8.73;7.67;;;4.00;99.90;;;;;;5067947;28;20198;-63
2021/04/16 03:00:45;;;;;;;7.70;6.90;;;4.10;99.90;;;;;;5071389;28;20277;-63
2021/04/16 03:03:10;;;;;;;8.30;7.50;;;4.20;99.90;;;;;;5069756;28;20441;-63
2021/04/16 03:05:36;;;;;;;15.50;7.87;;;4.30;99.90;;;;;;5068950;28;20183;-63
2021/04/16 03:08:02;;;;;;;11.00;8.40;;;4.30;99.90;;;;;;5070500;28;20545;-63
2021/04/16 03:10:30;;;;;;;8.63;7.77;;;4.10;99.90;;;;;;5070420;28;20273;-63
2021/04/16 03:12:56;;;;;;;8.70;7.80;;;4.10;99.90;;;;;;5068841;28;20514;-64
2021/04/16 03:15:23;;;;;;;8.13;7.13;;;4.00;99.90;;;;;;5071267;28;20497;-63
2021/04/16 03:17:49;;;;;;;7.97;6.97;;;4.00;99.90;;;;;;5071262;28;20214;-63
2021/04/16 03:20:18;;;;;;;12.83;8.93;;;4.00;99.90;;;;;;5065836;28;20495;-63
2021/04/16 03:22:45;;;;;;;11.00;8.60;;;4.10;99.90;;;;;;5070066;28;20846;-63
2021/04/16 03:25:12;;;;;;;11.27;8.00;;;4.00;99.90;;;;;;5088049;28;20466;-63
2021/04/16 03:27:38;;;;;;;10.43;8.40;;;4.00;99.90;;;;;;5091197;28;20475;-63
2021/04/16 03:30:06;;;;;;;9.00;7.70;;;4.00;99.90;;;;;;5068432;28;20446;-63
2021/04/16 03:32:32;;;;;;;12.63;7.40;;;4.00;99.90;;;;;;5071221;28;20188;-63
2021/04/16 03:34:58;;;;;;;11.37;8.17;;;4.00;99.90;;;;;;5068601;28;20448;-63
2021/04/16 03:37:23;;;;;;;10.23;7.57;;;4.00;99.90;;;;;;5066372;28;20266;-63
2021/04/16 03:39:49;;;;;;;8.97;7.00;;;4.10;99.90;;;;;;5070947;28;20664;-63
2021/04/16 03:42:15;;;;;;;8.20;6.77;;;4.10;99.90;;;;;;5069294;28;20763;-63
2021/04/16 03:44:40;;;;;;;7.77;6.17;;;4.20;99.90;;;;;;5069771;28;20447;-63
2021/04/16 03:47:06;;;;;;;6.57;5.87;;;4.10;99.90;;;;;;5069908;28;20194;-63
2021/04/16 03:49:32;;;;;;;8.70;6.50;;;4.00;99.90;;;;;;5069348;28;20233;-64
2021/04/16 03:51:59;;;;;;;8.00;7.20;;;4.20;99.90;;;;;;5068744;28;20256;-63
2021/04/16 03:54:26;;;;;;;6.47;5.70;;;4.20;99.90;;;;;;5069365;28;20186;-63
2021/04/16 03:56:52;;;;;;;7.30;6.60;;;4.20;99.90;;;;;;5069930;28;20441;-63
2021/04/16 03:59:19;;;;;;;6.67;4.90;;;4.20;99.90;;;;;;5069869;28;20825;-63
2021/04/16 04:01:44;;;;;;;7.00;6.20;;;4.10;99.90;;;;;;5083374;28;20440;-63
2021/04/16 04:04:10;;;;;;;5.97;5.20;;;4.10;99.90;;;;;;5071542;28;20958;-63
2021/04/16 04:06:36;;;;;;;6.83;6.13;;;4.00;99.90;;;;;;5069089;28;20194;-63
2021/04/16 04:09:03;;;;;;;5.50;5.00;;;4.00;99.90;;;;;;5069233;28;20267;-62
2021/04/16 04:11:28;;;;;;;6.63;5.90;;;4.00;99.90;;;;;;5069104;28;20187;-62
2021/04/16 04:13:55;;;;;;;7.60;5.90;;;4.10;99.90;;;;;;5070466;28;20443;-61
2021/04/16 04:16:20;;;;;;;6.30;5.70;;;4.10;99.90;;;;;;5069731;28;20181;-62
2021/04/16 04:18:46;;;;;;;6.90;5.77;;;4.10;99.90;;;;;;5069969;28;20445;-62
2021/04/16 04:21:11;;;;;;;10.23;5.87;;;4.10;99.90;;;;;;5069114;28;20186;-61
2021/04/16 04:23:37;;;;;;;6.43;4.70;;;4.00;99.90;;;;;;5069163;28;20256;-62
2021/04/16 04:26:03;;;;;;;5.10;4.57;;;3.90;99.90;;;;;;5066636;28;20202;-63
2021/04/16 04:28:29;;;;;;;5.93;5.30;;;3.90;99.90;;;;;;5070103;28;20620;-62
2021/04/16 04:30:55;;;;;;;7.10;5.67;;;4.10;99.90;;;;;;5069179;28;20804;-63
2021/04/16 04:33:21;;;;;;;5.10;4.63;;;4.10;99.90;;;;;;5070143;28;20441;-63
2021/04/16 04:35:46;;;;;;;5.90;5.30;;;4.10;99.90;;;;;;5070059;28;20262;-62
2021/04/16 04:38:12;;;;;;;7.00;5.60;;;4.10;99.90;;;;;;5070354;28;20191;-62
2021/04/16 04:40:38;;;;;;;6.87;5.70;;;4.00;99.90;;;;;;5069229;28;20209;-62
2021/04/16 04:43:04;;;;;;;5.57;4.80;;;4.10;99.90;;;;;;5069691;28;20252;-63
2021/04/16 04:45:29;;;;;;;7.20;6.47;;;4.00;99.90;;;;;;5069888;28;20444;-63
2021/04/16 04:47:55;;;;;;;6.40;5.30;;;4.10;99.90;;;;;;5069547;28;20305;-63
2021/04/16 04:50:22;;;;;;;7.80;5.50;;;4.00;99.90;;;;;;5068020;28;20298;-63
2021/04/16 04:52:48;;;;;;;8.17;6.27;;;4.00;99.90;;;;;;5069839;28;20438;-62
2021/04/16 04:55:19;;;;;;;6.90;5.17;;;4.10;99.90;;;;;;5068695;28;20441;-62
2021/04/16 04:57:44;;;;;;;6.50;5.20;;;4.00;99.90;;;;;;5068659;28;20441;-62
2021/04/16 05:00:12;;;;;;;6.87;6.07;;;3.90;99.90;;;;;;5068997;28;20456;-62
2021/04/16 05:02:38;;;;;;;5.90;4.93;;;3.90;99.90;;;;;;5079454;28;20186;-62
2021/04/16 05:05:05;;;;;;;5.93;5.10;;;3.90;99.90;;;;;;5068528;28;20501;-62
2021/04/16 05:07:30;;;;;;;7.90;6.27;;;3.90;99.90;;;;;;5074830;28;20454;-62
2021/04/16 05:09:56;;;;;;;7.83;7.00;;;3.90;99.90;;;;;;5069709;28;20442;-62
2021/04/16 05:12:22;;;;;;;6.63;6.03;;;3.90;99.90;;;;;;5070264;28;20282;-62
2021/04/16 05:14:47;;;;;;;6.63;5.90;;;4.00;99.90;;;;;;5070109;28;20186;-62
2021/04/16 05:17:13;;;;;;;7.77;6.60;;;4.00;99.90;;;;;;5071986;28;20194;-62
2021/04/16 05:19:39;;;;;;;7.50;6.70;;;4.00;99.90;;;;;;5069602;28;20704;-61
2021/04/16 05:22:05;;;;;;;9.77;8.00;;;3.90;99.90;;;;;;5068201;28;20444;-62
2021/04/16 05:24:32;;;;;;;8.77;7.40;;;3.90;99.90;;;;;;5069831;28;20644;-62
2021/04/16 05:27:11;;;;;;;10.70;7.70;;;3.80;99.90;;;;;;5069608;28;20518;-62
2021/04/16 05:29:37;;;;;;;8.20;7.40;;;3.80;99.90;;;;;;5069248;28;20475;-63
2021/04/16 05:32:03;;;;;;;10.87;7.57;;;3.80;99.90;;;;;;5070826;28;20799;-63
2021/04/16 05:34:29;;;;;;;9.47;7.30;;;3.90;99.90;;;;;;5073670;28;20229;-62
2021/04/16 05:36:55;;;;;;;8.13;6.90;;;3.90;99.90;;;;;;5072595;28;20930;-63
2021/04/16 05:39:20;;;;;;;6.83;6.13;;;3.90;99.90;;;;;;5073134;28;20183;-63
2021/04/16 05:41:46;;;;;;;6.07;5.57;;;4.00;99.90;;;;;;5072908;28;20444;-62
2021/04/16 05:44:12;;;;;;;6.60;5.93;;;4.10;99.90;;;;;;5073225;28;20219;-63
2021/04/16 05:46:38;;;;;;;9.70;6.97;;;4.10;99.90;;;;;;5073158;28;20437;-63
2021/04/16 05:49:04;;;;;;;6.90;6.30;;;4.10;99.90;;;;;;5078008;28;20534;-62
2021/04/16 05:51:30;;;;;;;12.90;6.93;;;4.10;99.90;;;;;;5072715;28;20486;-63
2021/04/16 05:53:55;;;;;;;6.80;6.10;;;4.10;99.90;;;;;;5071479;28;20429;-63
2021/04/16 05:56:21;;;;;;;7.43;5.83;;;4.20;99.90;;;;;;5072194;28;20564;-63
2021/04/16 05:58:47;;;;;;;5.60;5.10;;;4.20;99.90;;;;;;5073205;28;20446;-63
2021/04/16 06:01:12;;;;;;;6.30;5.30;;;4.30;99.90;;;;;;5072669;28;20186;-63
2021/04/16 06:03:41;;;;;;;10.87;6.20;;;4.40;99.90;;;;;;5072521;28;20216;-62
2021/04/16 06:06:07;;;;;;;6.30;5.43;;;4.40;99.90;;;;;;5071884;28;20179;-62
2021/04/16 06:08:33;;;;;;;8.10;6.20;;;4.40;99.90;;;;;;5072592;28;21000;-62
2021/04/16 06:10:59;;;;;;;7.63;5.40;;;4.30;99.90;;;;;;5071174;28;20278;-63
2021/04/16 06:13:26;;;;;;;6.10;5.50;;;4.30;99.90;;;;;;5077741;28;20460;-62
2021/04/16 06:15:52;;;;;;;6.37;5.73;;;4.30;99.90;;;;;;5070953;28;20571;-62
2021/04/16 06:18:19;;;;;;;8.27;5.87;;;4.30;99.90;;;;;;5072842;28;20440;-63
2021/04/16 06:20:45;;;;;;;6.90;6.20;;;4.30;99.90;;;;;;5072504;28;20503;-63
2021/04/16 06:23:11;;;;;;;5.63;5.13;;;4.30;99.90;;;;;;5072731;28;20434;-63
2021/04/16 06:25:36;;;;;;;5.53;5.03;;;4.20;99.90;;;;;;5073510;28;20641;-62
2021/04/16 06:28:03;;;;;;;6.77;5.67;;;4.10;99.90;;;;;;5091193;28;20218;-63
2021/04/16 06:30:30;;;;;;;5.57;4.67;;;4.20;99.90;;;;;;5083698;28;20706;-62
2021/04/16 06:33:01;;;;;;;5.83;5.23;;;4.30;99.90;;;;;;5071836;28;20452;-63
2021/04/16 06:35:27;;;;;;;5.90;5.27;;;4.50;99.90;;;;;;5071722;28;20469;-62
2021/04/16 06:37:53;;;;;;;5.53;5.03;;;4.50;99.90;;;;;;5071875;28;20441;-62
2021/04/16 06:40:18;;;;;;;9.03;6.50;;;7.40;99.90;;;;;;5053746;28;20430;-63
2021/04/16 06:42:46;;;;;;;5.47;4.97;;;4.40;99.90;;;;;;5071612;28;20218;-63
2021/04/16 06:45:25;;;;;;;5.83;5.30;;;4.50;99.90;;;;;;5072031;28;20667;-63
2021/04/16 06:48:04;;;;;;;6.73;5.80;;;3.50;99.90;;;;;;5071997;28;20507;-63
2021/04/16 06:50:33;;;;;;;8.00;6.00;;;4.50;99.90;;;;;;5070294;28;20803;-63
2021/04/16 06:53:29;;;;;;;6.73;5.97;;;4.40;99.90;;;;;;5070147;28;20556;-62
2021/04/16 06:56:13;;;;;;;6.60;6.00;;;4.40;99.90;;;;;;5070917;28;20783;-63
2021/04/16 06:58:50;;;;;;;7.73;6.00;;;4.50;99.90;;;;;;5071011;28;20445;-63
2021/04/16 07:01:36;;;;;;;7.83;5.10;;;4.40;99.90;;;;;;5069063;28;20505;-63
2021/04/16 07:04:22;;;;;;;6.00;5.40;;;4.40;99.90;;;;;;5071320;28;20514;-63
2021/04/16 07:06:54;;;;;;;6.57;5.97;;;4.40;99.90;;;;;;5071630;28;20438;-62
2021/04/16 07:09:30;;;;;;;5.97;5.40;;;4.50;99.90;;;;;;5070169;28;20947;-63
2021/04/16 07:12:12;;;;;;;6.13;5.27;;;4.60;99.90;;;;;;5071002;28;20472;-62
2021/04/16 07:14:46;;;;;;;5.83;5.30;;;4.60;99.90;;;;;;5071675;28;20432;-62
2021/04/16 07:17:17;;;;;;;8.63;5.77;;;4.60;99.90;;;;;;5071250;28;20772;-62
2021/04/16 07:19:43;;;;;;;7.30;5.43;;;4.60;99.90;;;;;;5069974;28;20535;-63
2021/04/16 07:22:38;;;;;;;7.27;5.93;;;4.70;99.90;;;;;;5070954;28;20533;-63
2021/04/16 07:25:24;;;;;;;6.20;5.57;;;4.70;99.90;;;;;;5071084;28;20233;-62
2021/04/16 07:27:56;;;;;;;6.00;5.40;;;4.80;99.90;;;;;;5071234;28;21232;-63
2021/04/16 07:30:28;;;;;;;5.43;4.93;;;4.80;99.90;;;;;;5069950;28;20445;-63
2021/04/16 07:32:54;;;;;;;7.33;5.50;;;4.70;99.90;;;;;;5070893;28;20438;-63
2021/04/16 07:35:31;;;;;;;5.80;5.27;;;4.80;99.90;;;;;;5070921;28;20441;-63
2021/04/16 07:38:09;;;;;;;5.90;5.13;;;4.90;99.90;;;;;;5070952;28;20456;-63
2021/04/16 07:40:40;;;;;;;6.90;5.87;;;4.90;99.90;;;;;;5089261;28;20437;-63
2021/04/16 07:43:07;;;;;;;7.43;5.60;;;4.90;99.90;;;;;;5070328;28;20808;-63
2021/04/16 07:45:41;;;;;;;5.80;5.30;;;4.90;99.90;;;;;;5070650;28;20453;-62
2021/04/16 07:48:18;;;;;;;6.00;5.30;;;5.00;99.90;;;;;;5070799;28;20449;-58
2021/04/16 07:50:52;;;;;;;6.33;5.60;;;5.00;99.90;;;;;;5070737;28;20521;-58
2021/04/16 07:53:44;;;;;;;6.03;4.83;;;4.90;99.90;;;;;;5069656;28;20523;-58
2021/04/16 07:56:15;;;;;;;6.57;5.27;;;4.80;99.90;;;;;;5069549;28;20438;-57
2021/04/16 07:58:47;;;;;;;6.27;5.33;;;4.70;99.90;;;;;;5067058;28;20441;-55
2021/04/16 08:01:25;;;;;;;6.63;5.80;;;4.80;99.90;;;;;;5068365;28;20445;-57
2021/04/16 08:04:31;;;;;;;7.03;6.20;;;4.90;99.90;;;;;;5068244;28;20429;-58
2021/04/16 08:07:16;;;;;;;6.80;5.27;;;5.10;99.90;;;;;;5066890;28;20449;-56
2021/04/16 08:09:42;;;;;;;8.20;6.60;;;5.10;99.90;;;;;;5067191;28;20457;-57
2021/04/16 08:12:07;;;;;;;9.50;6.03;;;5.20;99.90;;;;;;5069843;28;20780;-56
2021/04/16 08:14:35;;;;;;;6.03;4.70;;;5.20;99.90;;;;;;5069835;28;20445;-59
2021/04/16 08:17:14;;;;;;;6.40;5.57;;;5.10;99.90;;;;;;5069692;28;20207;-55
2021/04/16 08:19:40;;;;;;;7.73;5.50;;;5.20;99.90;;;;;;5068985;28;20441;-55
2021/04/16 08:22:10;;;;;;;9.03;6.10;;;5.20;99.90;;;;;;5070281;28;20991;-57
2021/04/16 08:24:54;;;;;;;7.60;6.33;;;5.20;99.90;;;;;;5068546;28;20441;-57
2021/04/16 08:27:43;;;;;;;8.20;5.93;;;5.10;99.90;;;;;;5067347;28;20478;-56
2021/04/16 08:30:34;;;;;;;6.13;5.53;;;5.20;99.90;;;;;;5069683;28;20442;-57
2021/04/16 08:33:20;;;;;;;6.20;5.13;;;5.30;99.90;;;;;;5068513;28;20440;-56
2021/04/16 08:35:49;;;;;;;5.13;4.63;;;5.30;99.90;;;;;;5068414;28;20513;-56
2021/04/16 08:38:18;;;;;;;6.37;5.53;;;5.00;99.90;;;;;;5069503;28;20465;-55
2021/04/16 08:40:47;;;;;;;5.97;5.37;;;5.00;99.90;;;;;;5069408;28;20503;-56
2021/04/16 08:43:35;;;;;;;6.53;5.93;;;5.10;99.90;;;;;;5069673;28;20479;-55
2021/04/16 08:46:09;;;;;;;7.80;5.57;;;5.10;99.90;;;;;;5069597;28;20455;-56
2021/04/16 08:48:39;;;;;;;8.00;6.10;;;5.10;99.90;;;;;;5069360;28;20461;-56
2021/04/16 08:51:11;;;;;;;6.83;4.70;;;5.20;99.90;;;;;;5069709;28;20440;-56
2021/04/16 08:53:42;;;;;;;6.33;5.23;;;5.30;99.90;;;;;;5069642;28;20533;-57
2021/04/16 08:56:23;;;;;;;5.20;4.70;;;5.30;99.90;;;;;;5073320;28;20437;-57
2021/04/16 08:58:50;;;;;;;12.97;5.20;;;5.40;99.90;;;;;;5088729;28;20425;-60
2021/04/16 09:01:21;;;;;;;5.93;5.27;;;5.30;99.90;;;;;;5075592;28;20831;-57
2021/04/16 09:03:53;;;;;;;7.90;5.33;;;5.40;99.90;;;;;;5069646;28;20853;-57
2021/04/16 09:06:39;;;;;;;6.73;5.57;;;5.40;99.90;;;;;;5077931;28;20437;-57
2021/04/16 09:09:09;;;;;;;7.00;5.87;;;5.50;99.90;;;;;;5061967;28;20968;-57
2021/04/16 09:11:41;;;;;;;7.37;5.60;;;5.50;99.90;;;;;;5072556;28;20449;-59
2021/04/16 09:14:08;;;;;;;9.83;7.60;;;5.40;99.90;;;;;;5071254;28;21035;-57
2021/04/16 09:16:55;;;;;;;9.17;6.80;;;5.50;99.90;;;;;;5073126;28;20919;-57
2021/04/16 09:19:27;;;;;;;8.00;6.43;;;5.50;99.90;;;;;;5071438;28;20444;-56
2021/04/16 09:22:02;;;;;;;10.83;7.60;;;5.80;99.90;;;;;;5073040;28;20490;-57
2021/04/16 09:24:46;;;;;;;9.83;7.40;;;5.80;99.90;;;;;;5073192;28;20433;-57
2021/04/16 09:27:33;;;;;;;7.93;5.97;;;5.90;99.90;;;;;;5071270;28;20446;-56
2021/04/16 09:30:07;;;;;;;8.40;6.87;;;6.00;99.90;;;;;;5072134;28;20788;-55
2021/04/16 09:32:37;;;;;;;10.77;7.70;;;6.00;99.90;;;;;;5073082;28;20436;-56
2021/04/16 09:35:09;;;;;;;9.13;7.60;;;6.00;99.90;;;;;;5088148;28;20442;-57
2021/04/16 09:38:02;;;;;;;9.67;7.00;;;6.00;99.90;;;;;;5087794;28;20945;-57
2021/04/16 09:40:32;;;;;;;9.70;8.20;;;6.10;99.90;;;;;;5045312;28;20522;-55
2021/04/16 09:43:09;;;;;;;8.00;7.20;;;6.20;99.90;;;;;;5074534;28;20442;-58
2021/04/16 09:45:35;;;;;;;8.20;7.13;;;6.20;99.90;;;;;;5071581;28;20962;-57
2021/04/16 09:48:05;;;;;;;8.70;7.80;;;6.20;99.90;;;;;;5072616;28;20457;-57
2021/04/16 09:50:40;;;;;;;8.93;7.80;;;6.10;99.90;;;;;;5068851;28;20191;-58
2021/04/16 09:53:17;;;;;;;11.10;6.80;;;6.00;99.90;;;;;;5072406;28;20434;-58
2021/04/16 09:56:01;;;;;;;11.10;7.87;;;6.10;99.90;;;;;;5072559;28;20455;-58
2021/04/16 09:58:38;;;;;;;11.20;8.00;;;6.10;99.90;;;;;;5070708;28;20445;-57
2021/04/16 10:01:12;;;;;;;13.90;7.87;;;6.30;99.90;;;;;;5070925;28;20448;-58
2021/04/16 10:03:39;;;;;;;12.30;7.73;;;6.40;99.90;;;;;;5069683;28;20447;-57
2021/04/16 10:06:26;;;;;;;12.40;7.40;;;6.40;99.90;;;;;;5074347;28;20527;-58
2021/04/16 10:09:16;;;;;;;8.20;7.33;;;6.30;99.90;;;;;;5092555;28;20472;-57
2021/04/16 10:12:01;;;;;;;9.43;6.93;;;6.50;99.90;;;;;;5074341;28;21029;-55
2021/04/16 10:14:30;;;;;;;9.03;6.23;;;6.50;99.90;;;;;;5070761;28;20902;-56
2021/04/16 10:17:02;;;;;;;10.13;8.40;;;6.60;99.90;;;;;;5070102;28;20448;-56
2021/04/16 10:19:34;;;;;;;10.37;7.70;;;6.80;99.90;;;;;;5070914;28;20994;-55
2021/04/16 10:22:21;;;;;;;10.13;9.13;;;6.60;99.90;;;;;;5072416;28;20495;-58
2021/04/16 10:38:10;;;;;;;9.73;8.17;;;6.60;99.90;;;;;;5071786;28;20535;-58
2021/04/16 10:47:22;;;;;;;10.03;7.73;;;6.50;99.90;;;;;;5078346;28;20985;-58
2021/04/16 11:17:25;;;;;;;7.13;5.63;;;7.40;99.90;;;;;;5070442;28;20589;-58
2021/04/16 12:38:59;;;;;;;6.67;4.80;;;8.90;1.00;;;;;;5063386;28;21020;-58
2021/04/16 12:41:38;;;;;;;7.20;4.63;;;9.00;1.00;;;;;;5061854;28;20442;-60
2021/04/16 12:44:05;;;;;;;7.03;3.90;;;9.00;1.00;;;;;;5062577;28;20532;-58
2021/04/16 12:46:37;;;;;;;6.03;4.90;;;8.80;1.00;;;;;;5064247;28;20460;-59
2021/04/16 12:49:05;;;;;;;5.77;4.60;;;8.90;1.00;;;;;;5068084;28;20527;-58
2021/04/16 12:51:30;;;;;;;7.67;4.87;;;9.00;1.00;;;;;;5068380;28;20444;-59
2021/04/16 12:53:56;;;;;;;6.37;5.00;;;9.20;1.00;;;;;;5069710;28;20434;-57
2021/04/16 12:56:38;;;;;;;6.97;4.50;;;9.50;1.00;;;;;;5067618;28;20175;-58
2021/04/16 12:59:12;;;;;;;5.97;4.13;;;9.30;1.00;;;;;;5068023;28;20184;-58
2021/04/16 13:01:38;;;;;;;9.17;4.43;;;9.20;1.00;;;;;;5067808;28;20527;-59
2021/04/16 13:04:04;;;;;;;5.63;4.70;;;9.30;1.00;;;;;;5069269;28;20450;-59
2021/04/16 13:06:37;;;;;;;4.83;4.30;;;9.20;1.00;;;;;;5073950;28;20693;-59
2021/04/16 13:09:05;;;;;;;4.37;3.97;;;9.20;1.00;;;;;;5076498;28;20659;-59
2021/04/16 13:11:31;;;;;;;7.50;4.57;;;9.20;1.00;;;;;;5067204;28;20521;-57
2021/04/16 13:13:57;;;;;;;4.20;3.80;;;9.50;1.00;;;;;;5066792;28;20602;-59
2021/04/16 13:16:23;;;;;;;5.50;4.40;;;9.50;1.00;;;;;;5067527;28;20173;-60
2021/04/16 13:18:55;;;;;;;7.40;4.30;;;9.80;1.00;;;;;;5067674;28;20537;-59
2021/04/16 13:21:32;;;;;;;4.43;3.97;;;10.30;1.00;;;;;;5069285;28;20512;-58
2021/04/16 13:23:58;;;;;;;4.73;3.57;;;10.50;1.00;;;;;;5067283;28;20446;-58
2021/04/16 13:26:25;;;;;;;5.90;3.90;;;10.40;1.00;;;;;;5074795;28;20459;-58
2021/04/16 13:28:51;;;;;;;8.73;4.30;;;10.50;1.00;;;;;;5068931;28;20529;-57
2021/04/16 13:31:16;;;;;;;5.10;3.87;;;10.50;1.00;;;;;;5065167;28;20431;-59
2021/04/16 13:33:44;;;;;;;4.43;3.70;;;10.30;1.00;;;;;;5069955;28;20183;-58
2021/04/16 13:36:23;;;;;;;5.03;3.27;;;10.30;1.00;;;;;;5088957;28;20786;-58
2021/04/16 13:38:48;;;;;;;5.90;3.67;;;10.30;1.00;;;;;;5069924;28;20446;-59
2021/04/16 13:41:14;;;;;;;7.23;4.60;;;10.30;1.00;;;;;;5067744;28;20910;-58
2021/04/16 13:43:40;;;;;;;5.10;3.60;;;10.40;1.00;;;;;;5068926;28;20188;-59
2021/04/16 13:46:08;;;;;;;5.93;3.23;;;10.60;1.00;;;;;;5068762;28;20235;-57
2021/04/16 13:48:33;;;;;;;4.90;3.90;;;10.50;1.00;;;;;;5068066;28;20204;-58
2021/04/16 13:50:59;;;;;;;4.30;3.90;;;10.40;1.00;;;;;;5067304;28;20914;-57
2021/04/16 13:53:25;;;;;;;10.23;4.10;;;11.70;1.00;;;;;;5069459;28;20504;-58
2021/04/16 13:55:51;;;;;;;4.80;3.53;;;10.50;1.00;;;;;;5071020;28;20511;-58
2021/04/16 13:58:17;;;;;;;10.93;4.10;;;10.50;1.00;;;;;;5070454;28;20266;-59
2021/04/16 14:00:46;;;;;;;5.97;3.50;;;10.50;1.00;;;;;;5071126;28;20543;-59
2021/04/16 14:03:37;;;;;;;7.07;3.67;;;10.40;1.00;;;;;;5070462;28;20629;-59
2021/04/16 14:06:13;;;;;;;6.90;4.17;;;10.30;1.00;;;;;;5072014;28;20442;-59
2021/04/16 14:08:43;;;;;;;4.03;3.53;;;10.10;1.00;;;;;;5068455;28;20461;-59
2021/04/16 14:11:09;;;;;;;4.60;3.90;;;10.00;1.00;;;;;;5070735;28;20445;-60
2021/04/16 14:13:35;;;;;;;3.97;3.57;;;10.20;1.00;;;;;;5069916;28;20437;-60
2021/04/16 14:16:05;;;;;;;6.53;4.00;;;10.30;1.00;;;;;;5072069;28;20196;-62
2021/04/16 14:18:38;;;;;;;3.37;3.07;;;10.30;1.00;;;;;;5067720;28;20701;-58
2021/04/16 14:21:11;;;;;;;3.40;3.10;;;10.20;1.00;;;;;;5069731;28;20448;-60
2021/04/16 14:23:36;;;;;;;4.70;3.50;;;10.10;1.00;;;;;;5069761;28;20475;-60
2021/04/16 14:26:03;;;;;;;6.00;3.43;;;10.10;1.00;;;;;;5072852;28;20446;-60
2021/04/16 14:28:29;;;;;;;3.97;3.57;;;10.20;1.00;;;;;;5074716;28;20704;-60
2021/04/16 14:30:55;;;;;;;3.87;3.47;;;10.20;1.00;;;;;;5069589;28;20481;-58
2021/04/16 14:33:29;;;;;;;4.50;4.10;;;10.30;1.00;;;;;;5072186;28;20177;-60
2021/04/16 14:35:56;;;;;;;3.93;3.20;;;10.20;1.00;;;;;;5074888;28;20922;-59
2021/04/16 14:38:23;;;;;;;4.70;3.27;;;10.40;1.00;;;;;;5071126;28;20455;-59
2021/04/16 14:40:49;;;;;;;6.73;3.40;;;10.60;1.00;;;;;;5071364;28;20454;-60
2021/04/16 14:43:14;;;;;;;7.90;5.70;;;10.80;1.00;;;;;;5069697;28;20957;-60
2021/04/16 14:45:45;;;;;;;8.60;3.50;;;11.20;1.00;;;;;;5069503;28;20195;-59
2021/04/16 14:48:12;;;;;;;3.07;2.77;;;11.90;1.00;;;;;;5069592;28;20207;-60
2021/04/16 14:50:38;;;;;;;8.00;3.50;;;12.60;1.00;;;;;;5068966;28;20444;-60
2021/04/16 14:53:21;;;;;;;3.37;3.07;;;13.10;1.00;;;;;;5070300;28;20438;-58
2021/04/16 14:55:47;;;;;;;5.23;3.67;;;13.60;1.00;;;;;;5068767;28;20436;-59
2021/04/16 14:58:16;;;;;;;11.30;3.83;;;14.20;1.00;;;;;;5069946;28;20447;-60
2021/04/16 15:00:41;;;;;;;4.97;3.37;;;14.80;1.00;;;;;;5068381;28;20413;-60
2021/04/16 15:03:07;;;;;;;4.30;2.67;;;14.70;1.00;;;;;;5068645;28;20420;-59
2021/04/16 15:05:34;;;;;;;7.07;3.40;;;14.30;1.00;;;;;;5069067;28;20188;-60
2021/04/16 15:08:10;;;;;;;4.93;3.00;;;14.30;1.00;;;;;;5069091;28;20433;-58
2021/04/16 15:10:45;;;;;;;3.33;2.70;;;14.00;1.00;;;;;;5070188;28;20494;-59
2021/04/16 15:13:15;;;;;;;4.93;3.30;;;13.70;1.00;;;;;;5070481;28;20818;-58
2021/04/16 15:15:42;;;;;;;3.20;2.80;;;14.10;1.00;;;;;;5070084;28;20453;-58
2021/04/16 15:18:10;;;;;;;3.30;3.00;;;14.30;1.00;;;;;;5068599;28;20443;-61